Lubbock, TX (79424)

1:11 AM CDT en Septiembre 22, 2014 (GMT -0500)
South West Lubbock | Change Station
CLOSE
Current Station
Estación meteorológica personal
Location: Lubbock, TX
Altura: 3284 ft
Estaciones meteorológicas cercanas
Aviso en curso: Areal Flood Watch

Alt 3284 ft 33.52 °N, 101.96 °W | Updated 1 minute ago

Muy nublado
Muy nublado
66.7 ° F
Sensación térmica 66.7 ° F
N
1.6
Viento Variable Viento desde Este
Gusts 2.2 mph

Hoy
Alta -- | Baja -- ° F
--% Posibilidad de precipitaciones
Ayer
Alta -- | Baja -- ° F
Precip. -- pul
7:35 AM 7:44 PM
Creciente menguante, 4% visible
Presión 30.14 pul
Visibilidad 9.0 Millas
Nubes Baja 3000 ft
Nubes dispersas 5000 ft
Muy nublado 18000 ft
Punto de rocío 45 ° F
Humedad 45%
Precipitaciones 0.00 pul
Espesor de la nieve No disponible.
UV 1.0 de una escala de 12
Polen 7.30 de una escala de 12
Calidad del aire No disponible.
Flu Activity No disponible.
METAR KLBB 220553Z 06008KT 9SM FEW030 SCT050 BKN180 19/18 A3026 RMK AO2 SLP206 T01940178 10211 20194 402390189 50000

More Conditions Fewer Conditions

Presión 30.14 pul
Visibilidad 9.0 Millas
Nubes Baja 3000 ft
Nubes dispersas 5000 ft
Muy nublado 18000 ft
Punto de rocío 45 ° F
Humedad 45%
Precipitaciones 0.00 pul
Espesor de la nieve No disponible.
UV 1.0 de una escala de 12
Polen 7.30 de una escala de 12
Calidad del aire No disponible.
Flu Activity No disponible.
METAR KLBB 220553Z 06008KT 9SM FEW030 SCT050 BKN180 19/18 A3026 RMK AO2 SLP206 T01940178 10211 20194 402390189 50000

More Conditions Fewer Conditions

Nowcast | as of 11:14 PM CDT on September 21, 2014

Isolated light showers will continue early Monday morning over parts of the South Plains. Most rainfall will be a few hundredths of an inch or less.

×

10-Day Weather Forecast

Almanac

Astronomía

Sep. 22, 2014 Salida Puesta
Hora real 7:35 AM CDT 7:44 PM CDT
Crepúsculo civil 7:11 AM CDT 8:09 PM CDT
Crepúsculo náutico 6:42 AM CDT 8:38 PM CDT
Crepúsculo astronómico 6:12 AM CDT 9:07 PM CDT
Luna 6:09 AM CDT 6:51 PM CDT
Horas de luz 12h 58m
Horas de luz
12h 08m
Tomorrow will be 2m 3s shorter.
Creciente menguante, 4% of the Moon is Illuminated
Hoy
Creciente menguante
Sep 24
Nueva
Oct 1
Cuarto creciente
Oct 8
Luna llena
Oct 15
Cuarto menguante

Extremos de hoy

Máximos del estado Bajos del estado

Community

WunderPhotos

Upload Photos

1,755,392 ¡fotos cargadas!

Nearby

Calidad del aire

  Calidad del aire Índice AQ Contaminante
Domingo Buena
PM10
Domingo Buena
OZONE
Lunes Buena
PM10
Lunes Buena
OZONE
Martes Buena
PM10
Martes Buena
OZONE

Grosos de nieve

Estación Profundido Altura
No tenemos constancia de nieve nueva.

Actividad de terremotos

Ciudad Distance Mag. Tiempo y dato
No hay informes recientes de la actividad sísmica.
Magnitud mínima muestra es 2,5.

Temperaturas de aguas costeras

Lugar Temperatura
Sin partes meteorológicos de las estaciones

Estaciones meteorológicas cercanas